EWG67A EGLL-EDDB
Flight info
| Callsign | EWG67A |
|---|---|
| Flight time | 1h 27m |
| Altitude | 37000 |
| Route | BPK Q295 BRAIN M197 REDFA DCT TACHA DCT NIE DCT BATEL T207 OGBER |
| Aircraft | A20N/M-SDE2E3FGHIRWXY/LB1 |
Departure
| Time | 2026-05-06 20:32 |
|---|---|
| Airport | London Heathrow Airport (EGLL) |
Arrival
| Time | 2026-05-06 21:59 |
|---|---|
| Airport | Berlin Brandenburg Airport (EDDB) |
| Time | Latitude | Longitude | Altitude | Speed | Heading |
|---|---|---|---|---|---|
| 2026-05-06 20:00 | 51.46827 | -0.45184 | 89 ft | 0 kts | 360° |
| 2026-05-06 20:21 | 51.46814 | -0.45183 | 92 ft | 3 kts | 356° |
| 2026-05-06 20:21 | 51.46794 | -0.45179 | 91 ft | 3 kts | 347° |
| 2026-05-06 20:21 | 51.46774 | -0.45170 | 91 ft | 3 kts | 334° |
| 2026-05-06 20:22 | 51.46758 | -0.45154 | 92 ft | 3 kts | 309° |
| 2026-05-06 20:22 | 51.46750 | -0.45131 | 92 ft | 2 kts | 270° |
| 2026-05-06 20:22 | 51.46750 | -0.45130 | 89 ft | 0 kts | 270° |
| 2026-05-06 20:25 | 51.46750 | -0.45133 | 89 ft | 2 kts | 270° |
| 2026-05-06 20:25 | 51.46750 | -0.45175 | 89 ft | 7 kts | 270° |
| 2026-05-06 20:25 | 51.46751 | -0.45290 | 89 ft | 14 kts | 270° |
| 2026-05-06 20:26 | 51.46750 | -0.45469 | 89 ft | 16 kts | 270° |
| 2026-05-06 20:26 | 51.46749 | -0.45648 | 89 ft | 16 kts | 269° |
| 2026-05-06 20:26 | 51.46749 | -0.45821 | 89 ft | 15 kts | 270° |
| 2026-05-06 20:26 | 51.46749 | -0.45985 | 92 ft | 14 kts | 270° |
| 2026-05-06 20:27 | 51.46748 | -0.46143 | 91 ft | 14 kts | 270° |
| 2026-05-06 20:27 | 51.46747 | -0.46297 | 90 ft | 15 kts | 270° |
| 2026-05-06 20:27 | 51.46748 | -0.46476 | 91 ft | 18 kts | 271° |
| 2026-05-06 20:27 | 51.46748 | -0.46682 | 93 ft | 20 kts | 269° |
| 2026-05-06 20:28 | 51.46748 | -0.46902 | 93 ft | 19 kts | 270° |
| 2026-05-06 20:28 | 51.46747 | -0.47117 | 89 ft | 19 kts | 269° |
| 2026-05-06 20:28 | 51.46746 | -0.47324 | 93 ft | 18 kts | 270° |
| 2026-05-06 20:28 | 51.46746 | -0.47527 | 91 ft | 19 kts | 270° |
| 2026-05-06 20:29 | 51.46745 | -0.47748 | 89 ft | 21 kts | 269° |
| 2026-05-06 20:29 | 51.46744 | -0.47974 | 89 ft | 20 kts | 270° |
| 2026-05-06 20:29 | 51.46736 | -0.48180 | 89 ft | 15 kts | 243° |
| 2026-05-06 20:29 | 51.46663 | -0.48214 | 89 ft | 11 kts | 178° |
| 2026-05-06 20:30 | 51.46580 | -0.48213 | 90 ft | 13 kts | 179° |
| 2026-05-06 20:30 | 51.46479 | -0.48135 | 91 ft | 6 kts | 89° |
| 2026-05-06 20:30 | 51.46479 | -0.48120 | 91 ft | 0 kts | 89° |
| 2026-05-06 20:31 | 51.46480 | -0.47999 | 90 ft | 38 kts | 89° |
| 2026-05-06 20:31 | 51.46484 | -0.47222 | 93 ft | 100 kts | 90° |
| 2026-05-06 20:31 | 51.46485 | -0.45842 | 96 ft | 155 kts | 88° |
| 2026-05-06 20:32 | 51.46494 | -0.44066 | 563 ft | 158 kts | 83° |
| 2026-05-06 20:32 | 51.46549 | -0.42302 | 1234 ft | 160 kts | 81° |
| 2026-05-06 20:32 | 51.46922 | -0.40509 | 1578 ft | 182 kts | 51° |
| 2026-05-06 20:32 | 51.47856 | -0.38994 | 1910 ft | 203 kts | 39° |
| 2026-05-06 20:33 | 51.48970 | -0.37330 | 2190 ft | 233 kts | 43° |
| 2026-05-06 20:33 | 51.50146 | -0.35436 | 2892 ft | 244 kts | 45° |
| 2026-05-06 20:33 | 51.51308 | -0.33413 | 3703 ft | 251 kts | 53° |
| 2026-05-06 20:33 | 51.52109 | -0.30883 | 4476 ft | 258 kts | 67° |
| 2026-05-06 20:34 | 51.52726 | -0.28135 | 5271 ft | 264 kts | 69° |
| 2026-05-06 20:34 | 51.53318 | -0.25332 | 5811 ft | 267 kts | 70° |
| 2026-05-06 20:34 | 51.53895 | -0.22478 | 6242 ft | 270 kts | 71° |
| 2026-05-06 20:34 | 51.54469 | -0.19583 | 7000 ft | 273 kts | 69° |
| 2026-05-06 20:35 | 51.55040 | -0.16651 | 7820 ft | 277 kts | 71° |
| 2026-05-06 20:35 | 51.55425 | -0.14696 | 8365 ft | 279 kts | 71° |
| 2026-05-06 20:35 | 51.56017 | -0.11699 | 9227 ft | 283 kts | 71° |
| 2026-05-06 20:35 | 51.56612 | -0.08665 | 10043 ft | 287 kts | 71° |
| 2026-05-06 20:36 | 51.57227 | -0.05528 | 10539 ft | 304 kts | 71° |
| 2026-05-06 20:36 | 51.57898 | -0.02124 | 10875 ft | 325 kts | 71° |
| 2026-05-06 20:36 | 51.58587 | 0.01386 | 11332 ft | 340 kts | 71° |
| 2026-05-06 20:36 | 51.59311 | 0.05057 | 12038 ft | 347 kts | 71° |
| 2026-05-06 20:37 | 51.60044 | 0.08776 | 12851 ft | 352 kts | 71° |
| 2026-05-06 20:37 | 51.60859 | 0.12503 | 13666 ft | 355 kts | 64° |
| 2026-05-06 20:37 | 51.61914 | 0.16120 | 14396 ft | 359 kts | 63° |
| 2026-05-06 20:37 | 51.63040 | 0.19727 | 15104 ft | 363 kts | 61° |
| 2026-05-06 20:38 | 51.64224 | 0.23347 | 15824 ft | 367 kts | 60° |
| 2026-05-06 20:38 | 51.65446 | 0.26988 | 16518 ft | 372 kts | 60° |
| 2026-05-06 20:38 | 51.66696 | 0.30674 | 17203 ft | 376 kts | 60° |
| 2026-05-06 20:38 | 51.67960 | 0.34399 | 17876 ft | 380 kts | 60° |
| 2026-05-06 20:39 | 51.69234 | 0.38163 | 18504 ft | 384 kts | 60° |
| 2026-05-06 20:39 | 51.70516 | 0.41972 | 19094 ft | 388 kts | 60° |
| 2026-05-06 20:39 | 51.71807 | 0.45821 | 19677 ft | 392 kts | 60° |
| 2026-05-06 20:39 | 51.73106 | 0.49706 | 20263 ft | 396 kts | 60° |
| 2026-05-06 20:40 | 51.74421 | 0.53649 | 20785 ft | 401 kts | 60° |
| 2026-05-06 20:40 | 51.75747 | 0.57637 | 21368 ft | 405 kts | 60° |
| 2026-05-06 20:40 | 51.77089 | 0.61677 | 21939 ft | 408 kts | 60° |
| 2026-05-06 20:40 | 51.78434 | 0.65731 | 22485 ft | 412 kts | 60° |
| 2026-05-06 20:41 | 51.79792 | 0.69830 | 23023 ft | 415 kts | 61° |
| 2026-05-06 20:41 | 51.81142 | 0.73915 | 23555 ft | 419 kts | 61° |
| 2026-05-06 20:41 | 51.82521 | 0.78111 | 24010 ft | 422 kts | 62° |
| 2026-05-06 20:41 | 51.83673 | 0.82478 | 24423 ft | 425 kts | 69° |
| 2026-05-06 20:42 | 51.84638 | 0.87021 | 24833 ft | 429 kts | 71° |
| 2026-05-06 20:42 | 51.85537 | 0.91636 | 25240 ft | 432 kts | 72° |
| 2026-05-06 20:42 | 51.86397 | 0.96305 | 25643 ft | 434 kts | 73° |
| 2026-05-06 20:42 | 51.87241 | 1.01014 | 26050 ft | 437 kts | 73° |
| 2026-05-06 20:43 | 51.88084 | 1.05766 | 26461 ft | 439 kts | 73° |
| 2026-05-06 20:43 | 51.88929 | 1.10522 | 26830 ft | 442 kts | 73° |
| 2026-05-06 20:43 | 51.89775 | 1.15274 | 27204 ft | 444 kts | 73° |
| 2026-05-06 20:43 | 51.90637 | 1.20103 | 27580 ft | 447 kts | 73° |
| 2026-05-06 20:44 | 51.91504 | 1.24956 | 27944 ft | 450 kts | 73° |
| 2026-05-06 20:44 | 51.92376 | 1.29837 | 28301 ft | 452 kts | 73° |
| 2026-05-06 20:44 | 51.93253 | 1.34753 | 28652 ft | 454 kts | 73° |
| 2026-05-06 20:44 | 51.94130 | 1.39684 | 28998 ft | 457 kts | 73° |
| 2026-05-06 20:45 | 51.95002 | 1.44602 | 29320 ft | 459 kts | 73° |
| 2026-05-06 20:45 | 51.95885 | 1.49596 | 29654 ft | 462 kts | 73° |
| 2026-05-06 20:45 | 51.96770 | 1.54613 | 29985 ft | 464 kts | 73° |
| 2026-05-06 20:45 | 51.97652 | 1.59634 | 30384 ft | 463 kts | 74° |
| 2026-05-06 20:46 | 51.98534 | 1.64665 | 30773 ft | 462 kts | 74° |
| 2026-05-06 20:46 | 51.99396 | 1.69679 | 31155 ft | 461 kts | 75° |
| 2026-05-06 20:46 | 52.00212 | 1.74720 | 31520 ft | 460 kts | 75° |
| 2026-05-06 20:46 | 52.00998 | 1.79758 | 31879 ft | 460 kts | 76° |
| 2026-05-06 20:47 | 52.01771 | 1.84806 | 32227 ft | 459 kts | 76° |
| 2026-05-06 20:47 | 52.02527 | 1.89773 | 32560 ft | 459 kts | 76° |
| 2026-05-06 20:47 | 52.03294 | 1.94806 | 32891 ft | 459 kts | 76° |
| 2026-05-06 20:47 | 52.04063 | 1.99840 | 33179 ft | 459 kts | 76° |
| 2026-05-06 20:48 | 52.04829 | 2.04854 | 33515 ft | 458 kts | 76° |
| 2026-05-06 20:48 | 52.05597 | 2.09884 | 33822 ft | 457 kts | 76° |
| 2026-05-06 20:48 | 52.06359 | 2.14886 | 34103 ft | 456 kts | 76° |
| 2026-05-06 20:48 | 52.07121 | 2.19898 | 34347 ft | 456 kts | 76° |
| 2026-05-06 20:49 | 52.07882 | 2.24916 | 34580 ft | 456 kts | 76° |
| 2026-05-06 20:49 | 52.08638 | 2.29922 | 34798 ft | 456 kts | 76° |
| 2026-05-06 20:49 | 52.09392 | 2.34929 | 35011 ft | 456 kts | 76° |
| 2026-05-06 20:49 | 52.10145 | 2.39947 | 35215 ft | 456 kts | 76° |
| 2026-05-06 20:50 | 52.10894 | 2.44949 | 35419 ft | 456 kts | 76° |
| 2026-05-06 20:50 | 52.11660 | 2.49904 | 35600 ft | 456 kts | 74° |
| 2026-05-06 20:50 | 52.12536 | 2.54877 | 35718 ft | 458 kts | 73° |
| 2026-05-06 20:50 | 52.13478 | 2.59838 | 35909 ft | 458 kts | 72° |
| 2026-05-06 20:51 | 52.14442 | 2.64776 | 36095 ft | 458 kts | 72° |
| 2026-05-06 20:51 | 52.15412 | 2.69730 | 36278 ft | 458 kts | 72° |
| 2026-05-06 20:51 | 52.16375 | 2.74687 | 36436 ft | 459 kts | 72° |
| 2026-05-06 20:51 | 52.17328 | 2.79654 | 36599 ft | 459 kts | 72° |
| 2026-05-06 20:52 | 52.18260 | 2.84560 | 36774 ft | 459 kts | 72° |
| 2026-05-06 20:52 | 52.19201 | 2.89551 | 36924 ft | 459 kts | 72° |
| 2026-05-06 20:52 | 52.20136 | 2.94542 | 37002 ft | 461 kts | 72° |
| 2026-05-06 20:53 | 52.22001 | 3.04546 | 36990 ft | 461 kts | 73° |
| 2026-05-06 20:53 | 52.23861 | 3.14577 | 36992 ft | 461 kts | 73° |
| 2026-05-06 20:54 | 52.25555 | 3.24677 | 36994 ft | 461 kts | 80° |
| 2026-05-06 20:54 | 52.26581 | 3.34950 | 36992 ft | 461 kts | 82° |
| 2026-05-06 20:55 | 52.27473 | 3.45324 | 36987 ft | 461 kts | 82° |
| 2026-05-06 20:55 | 52.28331 | 3.55715 | 36992 ft | 461 kts | 82° |
| 2026-05-06 20:56 | 52.29189 | 3.66101 | 36993 ft | 461 kts | 82° |
| 2026-05-06 20:56 | 52.30047 | 3.76506 | 36986 ft | 461 kts | 82° |
| 2026-05-06 20:57 | 52.30893 | 3.86831 | 36990 ft | 461 kts | 83° |
| 2026-05-06 20:57 | 52.31733 | 3.97220 | 36980 ft | 461 kts | 83° |
| 2026-05-06 20:58 | 52.32564 | 4.07596 | 36984 ft | 459 kts | 83° |
| 2026-05-06 20:58 | 52.33382 | 4.17943 | 36982 ft | 458 kts | 83° |
| 2026-05-06 20:59 | 52.34186 | 4.28233 | 36981 ft | 458 kts | 83° |
| 2026-05-06 20:59 | 52.34986 | 4.38577 | 36976 ft | 458 kts | 83° |
| 2026-05-06 21:00 | 52.35777 | 4.48936 | 36980 ft | 458 kts | 83° |
| 2026-05-06 21:00 | 52.36559 | 4.59287 | 36973 ft | 458 kts | 83° |
| 2026-05-06 21:01 | 52.37331 | 4.69642 | 36967 ft | 458 kts | 83° |
| 2026-05-06 21:01 | 52.38094 | 4.79999 | 36967 ft | 458 kts | 83° |
| 2026-05-06 21:02 | 52.38843 | 4.90295 | 36966 ft | 458 kts | 83° |
| 2026-05-06 21:02 | 52.39589 | 5.00665 | 36965 ft | 458 kts | 84° |
| 2026-05-06 21:03 | 52.40323 | 5.11005 | 36966 ft | 457 kts | 84° |
| 2026-05-06 21:03 | 52.41048 | 5.21345 | 36969 ft | 457 kts | 84° |
| 2026-05-06 21:04 | 52.41764 | 5.31688 | 36965 ft | 457 kts | 84° |
| 2026-05-06 21:04 | 52.42471 | 5.42043 | 36966 ft | 458 kts | 84° |
| 2026-05-06 21:05 | 52.43170 | 5.52409 | 36966 ft | 458 kts | 84° |
| 2026-05-06 21:05 | 52.43860 | 5.62786 | 36947 ft | 458 kts | 84° |
| 2026-05-06 21:06 | 52.44537 | 5.73107 | 36947 ft | 458 kts | 84° |
| 2026-05-06 21:06 | 52.45210 | 5.83498 | 36946 ft | 458 kts | 84° |
| 2026-05-06 21:07 | 52.45873 | 5.93892 | 36947 ft | 458 kts | 85° |
| 2026-05-06 21:07 | 52.46528 | 6.04283 | 36946 ft | 457 kts | 85° |
| 2026-05-06 21:08 | 52.47171 | 6.14646 | 36947 ft | 457 kts | 85° |
| 2026-05-06 21:08 | 52.47802 | 6.24967 | 36944 ft | 457 kts | 85° |
| 2026-05-06 21:09 | 52.48427 | 6.35337 | 36947 ft | 457 kts | 85° |
| 2026-05-06 21:09 | 52.49042 | 6.45707 | 36947 ft | 457 kts | 85° |
| 2026-05-06 21:10 | 52.49650 | 6.56099 | 36944 ft | 458 kts | 85° |
| 2026-05-06 21:10 | 52.50250 | 6.66527 | 36944 ft | 459 kts | 85° |
| 2026-05-06 21:11 | 52.50839 | 6.76898 | 36944 ft | 459 kts | 86° |
| 2026-05-06 21:11 | 52.51421 | 6.87323 | 36941 ft | 459 kts | 86° |
| 2026-05-06 21:12 | 52.51993 | 6.97748 | 36943 ft | 459 kts | 86° |
| 2026-05-06 21:12 | 52.52557 | 7.08182 | 36940 ft | 459 kts | 86° |
| 2026-05-06 21:13 | 52.53112 | 7.18627 | 36940 ft | 459 kts | 86° |
| 2026-05-06 21:13 | 52.53657 | 7.29067 | 36939 ft | 459 kts | 86° |
| 2026-05-06 21:14 | 52.54191 | 7.39474 | 36939 ft | 459 kts | 86° |
| 2026-05-06 21:14 | 52.54719 | 7.49932 | 36936 ft | 460 kts | 86° |
| 2026-05-06 21:15 | 52.55238 | 7.60397 | 36925 ft | 460 kts | 86° |
| 2026-05-06 21:15 | 52.55748 | 7.70890 | 36925 ft | 460 kts | 87° |
| 2026-05-06 21:16 | 52.56249 | 7.81384 | 36922 ft | 460 kts | 87° |
| 2026-05-06 21:16 | 52.56742 | 7.91886 | 36922 ft | 460 kts | 87° |
| 2026-05-06 21:17 | 52.57224 | 8.02380 | 36907 ft | 460 kts | 87° |
| 2026-05-06 21:17 | 52.57695 | 8.12809 | 36921 ft | 460 kts | 87° |
| 2026-05-06 21:18 | 52.58160 | 8.23334 | 36912 ft | 460 kts | 87° |
| 2026-05-06 21:18 | 52.58615 | 8.33840 | 36911 ft | 460 kts | 87° |
| 2026-05-06 21:19 | 52.59060 | 8.44342 | 36903 ft | 460 kts | 88° |
| 2026-05-06 21:19 | 52.59497 | 8.54857 | 36892 ft | 460 kts | 88° |
| 2026-05-06 21:20 | 52.59921 | 8.65312 | 36896 ft | 460 kts | 88° |
| 2026-05-06 21:20 | 52.60339 | 8.75828 | 36897 ft | 461 kts | 88° |
| 2026-05-06 21:21 | 52.60680 | 8.84600 | 36891 ft | 461 kts | 88° |
| 2026-05-06 21:21 | 52.61081 | 8.95129 | 36889 ft | 460 kts | 88° |
| 2026-05-06 21:22 | 52.61473 | 9.05647 | 36875 ft | 460 kts | 88° |
| 2026-05-06 21:22 | 52.61855 | 9.16184 | 36883 ft | 461 kts | 89° |
| 2026-05-06 21:23 | 52.62229 | 9.26730 | 36875 ft | 461 kts | 89° |
| 2026-05-06 21:23 | 52.62493 | 9.37199 | 36875 ft | 460 kts | 94° |
| 2026-05-06 21:24 | 52.62202 | 9.47692 | 36883 ft | 459 kts | 95° |
| 2026-05-06 21:24 | 52.61792 | 9.58183 | 36881 ft | 459 kts | 96° |
| 2026-05-06 21:25 | 52.61352 | 9.68665 | 36884 ft | 459 kts | 96° |
| 2026-05-06 21:25 | 52.60908 | 9.79162 | 36882 ft | 460 kts | 96° |
| 2026-05-06 21:26 | 52.60461 | 9.89663 | 36883 ft | 460 kts | 96° |
| 2026-05-06 21:26 | 52.60008 | 10.00161 | 36884 ft | 460 kts | 96° |
| 2026-05-06 21:27 | 52.59545 | 10.10671 | 36883 ft | 460 kts | 96° |
| 2026-05-06 21:27 | 52.59075 | 10.21121 | 36883 ft | 461 kts | 97° |
| 2026-05-06 21:28 | 52.58592 | 10.31629 | 36869 ft | 461 kts | 97° |
| 2026-05-06 21:28 | 52.58101 | 10.42132 | 36867 ft | 461 kts | 97° |
| 2026-05-06 21:29 | 52.57599 | 10.52646 | 36865 ft | 461 kts | 97° |
| 2026-05-06 21:29 | 52.57089 | 10.63157 | 36865 ft | 461 kts | 97° |
| 2026-05-06 21:30 | 52.56569 | 10.73658 | 36265 ft | 460 kts | 97° |
| 2026-05-06 21:30 | 52.56303 | 10.78953 | 35269 ft | 470 kts | 97° |
| 2026-05-06 21:30 | 52.56027 | 10.84356 | 34475 ft | 476 kts | 97° |
| 2026-05-06 21:30 | 52.55751 | 10.89736 | 33682 ft | 481 kts | 97° |
| 2026-05-06 21:31 | 52.55467 | 10.95235 | 32867 ft | 481 kts | 97° |
| 2026-05-06 21:31 | 52.55185 | 11.00692 | 32018 ft | 477 kts | 97° |
| 2026-05-06 21:31 | 52.54906 | 11.06074 | 31435 ft | 467 kts | 98° |
| 2026-05-06 21:31 | 52.54814 | 11.11374 | 30892 ft | 460 kts | 91° |
| 2026-05-06 21:32 | 52.54889 | 11.16568 | 30356 ft | 451 kts | 92° |
| 2026-05-06 21:32 | 52.55083 | 11.26701 | 29306 ft | 438 kts | 91° |
| 2026-05-06 21:32 | 52.55195 | 11.31691 | 28730 ft | 437 kts | 91° |
| 2026-05-06 21:33 | 52.55308 | 11.36666 | 28147 ft | 436 kts | 91° |
| 2026-05-06 21:33 | 52.55419 | 11.41650 | 27560 ft | 435 kts | 91° |
| 2026-05-06 21:33 | 52.55528 | 11.46620 | 26951 ft | 435 kts | 91° |
| 2026-05-06 21:33 | 52.55632 | 11.51520 | 26364 ft | 435 kts | 90° |
| 2026-05-06 21:34 | 52.55734 | 11.56491 | 25743 ft | 435 kts | 91° |
| 2026-05-06 21:34 | 52.55834 | 11.61460 | 25158 ft | 435 kts | 91° |
| 2026-05-06 21:34 | 52.55931 | 11.66430 | 24558 ft | 436 kts | 91° |
| 2026-05-06 21:34 | 52.56027 | 11.71397 | 24092 ft | 432 kts | 91° |
| 2026-05-06 21:35 | 52.56120 | 11.76344 | 23610 ft | 430 kts | 90° |
| 2026-05-06 21:35 | 52.56211 | 11.81233 | 23152 ft | 426 kts | 90° |
| 2026-05-06 21:35 | 52.56299 | 11.86112 | 22580 ft | 424 kts | 91° |
| 2026-05-06 21:35 | 52.56385 | 11.90940 | 22047 ft | 420 kts | 91° |
| 2026-05-06 21:36 | 52.56466 | 11.95664 | 21531 ft | 417 kts | 91° |
| 2026-05-06 21:36 | 52.56545 | 12.00402 | 21015 ft | 414 kts | 91° |
| 2026-05-06 21:36 | 52.56622 | 12.05117 | 20513 ft | 411 kts | 91° |
| 2026-05-06 21:36 | 52.56685 | 12.09806 | 19944 ft | 409 kts | 91° |
| 2026-05-06 21:37 | 52.56707 | 12.14458 | 19481 ft | 405 kts | 92° |
| 2026-05-06 21:37 | 52.56707 | 12.19075 | 18992 ft | 402 kts | 92° |
| 2026-05-06 21:37 | 52.56851 | 12.23644 | 18357 ft | 398 kts | 85° |
| 2026-05-06 21:37 | 52.57205 | 12.28144 | 17582 ft | 394 kts | 84° |
| 2026-05-06 21:38 | 52.57605 | 12.32581 | 16814 ft | 389 kts | 83° |
| 2026-05-06 21:38 | 52.58015 | 12.36942 | 16088 ft | 384 kts | 83° |
| 2026-05-06 21:38 | 52.58426 | 12.41262 | 15350 ft | 380 kts | 82° |
| 2026-05-06 21:38 | 52.58829 | 12.45479 | 14640 ft | 375 kts | 82° |
| 2026-05-06 21:39 | 52.59232 | 12.49689 | 13945 ft | 371 kts | 82° |
| 2026-05-06 21:39 | 52.59631 | 12.53867 | 13148 ft | 369 kts | 82° |
| 2026-05-06 21:39 | 52.60025 | 12.58001 | 12514 ft | 361 kts | 82° |
| 2026-05-06 21:39 | 52.60407 | 12.62018 | 12024 ft | 349 kts | 82° |
| 2026-05-06 21:40 | 52.60770 | 12.65884 | 11792 ft | 336 kts | 83° |
| 2026-05-06 21:40 | 52.60815 | 12.69700 | 11516 ft | 333 kts | 101° |
| 2026-05-06 21:40 | 52.60047 | 12.73235 | 11334 ft | 326 kts | 124° |
| 2026-05-06 21:40 | 52.58547 | 12.75966 | 11134 ft | 321 kts | 142° |
| 2026-05-06 21:41 | 52.56803 | 12.78181 | 10952 ft | 320 kts | 146° |
| 2026-05-06 21:41 | 52.55003 | 12.80327 | 10755 ft | 319 kts | 146° |
| 2026-05-06 21:41 | 52.53211 | 12.82459 | 10576 ft | 318 kts | 146° |
| 2026-05-06 21:41 | 52.51423 | 12.84597 | 10388 ft | 317 kts | 146° |
| 2026-05-06 21:42 | 52.49645 | 12.86732 | 10224 ft | 313 kts | 146° |
| 2026-05-06 21:42 | 52.47925 | 12.88805 | 10060 ft | 301 kts | 146° |
| 2026-05-06 21:42 | 52.46265 | 12.90807 | 9886 ft | 291 kts | 146° |
| 2026-05-06 21:42 | 52.44653 | 12.92750 | 9709 ft | 282 kts | 146° |
| 2026-05-06 21:43 | 52.43097 | 12.94625 | 9527 ft | 273 kts | 146° |
| 2026-05-06 21:43 | 52.41587 | 12.96444 | 9366 ft | 263 kts | 146° |
| 2026-05-06 21:43 | 52.40135 | 12.98191 | 9225 ft | 254 kts | 146° |
| 2026-05-06 21:43 | 52.38717 | 12.99839 | 9050 ft | 252 kts | 152° |
| 2026-05-06 21:44 | 52.37111 | 13.00883 | 8919 ft | 248 kts | 171° |
| 2026-05-06 21:44 | 52.35409 | 13.00976 | 8763 ft | 244 kts | 194° |
| 2026-05-06 21:44 | 52.33896 | 12.99852 | 8624 ft | 239 kts | 221° |
| 2026-05-06 21:44 | 52.32901 | 12.97725 | 8485 ft | 236 kts | 248° |
| 2026-05-06 21:45 | 52.32495 | 12.95134 | 8338 ft | 237 kts | 259° |
| 2026-05-06 21:45 | 52.32138 | 12.92487 | 8207 ft | 238 kts | 252° |
| 2026-05-06 21:45 | 52.31601 | 12.89930 | 8023 ft | 237 kts | 249° |
| 2026-05-06 21:45 | 52.31010 | 12.87412 | 7913 ft | 238 kts | 249° |
| 2026-05-06 21:46 | 52.30404 | 12.84896 | 7792 ft | 238 kts | 248° |
| 2026-05-06 21:46 | 52.29792 | 12.82382 | 7638 ft | 237 kts | 248° |
| 2026-05-06 21:46 | 52.29182 | 12.79881 | 7515 ft | 237 kts | 248° |
| 2026-05-06 21:46 | 52.28573 | 12.77388 | 7375 ft | 236 kts | 248° |
| 2026-05-06 21:47 | 52.27963 | 12.74896 | 7239 ft | 236 kts | 248° |
| 2026-05-06 21:47 | 52.27355 | 12.72413 | 7108 ft | 236 kts | 248° |
| 2026-05-06 21:47 | 52.26745 | 12.69927 | 6963 ft | 235 kts | 248° |
| 2026-05-06 21:47 | 52.26106 | 12.67467 | 6828 ft | 235 kts | 242° |
| 2026-05-06 21:48 | 52.25108 | 12.65422 | 6691 ft | 235 kts | 218° |
| 2026-05-06 21:48 | 52.23621 | 12.64383 | 6554 ft | 236 kts | 188° |
| 2026-05-06 21:48 | 52.21987 | 12.64673 | 6419 ft | 239 kts | 165° |
| 2026-05-06 21:48 | 52.20419 | 12.65632 | 6277 ft | 242 kts | 157° |
| 2026-05-06 21:49 | 52.19042 | 12.67204 | 6126 ft | 244 kts | 133° |
| 2026-05-06 21:49 | 52.18269 | 12.69649 | 5981 ft | 245 kts | 101° |
| 2026-05-06 21:49 | 52.18362 | 12.72396 | 5839 ft | 246 kts | 74° |
| 2026-05-06 21:49 | 52.18941 | 12.75033 | 5698 ft | 248 kts | 68° |
| 2026-05-06 21:50 | 52.19602 | 12.77629 | 5536 ft | 248 kts | 66° |
| 2026-05-06 21:50 | 52.20266 | 12.80221 | 5407 ft | 246 kts | 67° |
| 2026-05-06 21:50 | 52.20914 | 12.82794 | 5261 ft | 246 kts | 67° |
| 2026-05-06 21:50 | 52.21676 | 12.85290 | 5125 ft | 246 kts | 61° |
| 2026-05-06 21:51 | 52.22356 | 12.87823 | 5009 ft | 241 kts | 69° |
| 2026-05-06 21:51 | 52.22961 | 12.90365 | 4847 ft | 241 kts | 68° |
| 2026-05-06 21:51 | 52.23566 | 12.92901 | 4709 ft | 243 kts | 68° |
| 2026-05-06 21:51 | 52.24173 | 12.95472 | 4632 ft | 242 kts | 69° |
| 2026-05-06 21:52 | 52.24759 | 12.97973 | 4523 ft | 228 kts | 69° |
| 2026-05-06 21:52 | 52.25304 | 13.00313 | 4470 ft | 214 kts | 69° |
| 2026-05-06 21:52 | 52.25831 | 13.02552 | 4476 ft | 205 kts | 69° |
| 2026-05-06 21:52 | 52.26328 | 13.04626 | 4423 ft | 188 kts | 68° |
| 2026-05-06 21:53 | 52.26812 | 13.06642 | 4433 ft | 194 kts | 68° |
| 2026-05-06 21:53 | 52.27307 | 13.08713 | 4441 ft | 197 kts | 68° |
| 2026-05-06 21:53 | 52.27798 | 13.10774 | 4448 ft | 197 kts | 69° |
| 2026-05-06 21:53 | 52.28295 | 13.12863 | 4444 ft | 197 kts | 68° |
| 2026-05-06 21:54 | 52.28790 | 13.14942 | 4447 ft | 197 kts | 68° |
| 2026-05-06 21:54 | 52.29287 | 13.17028 | 4343 ft | 197 kts | 68° |
| 2026-05-06 21:54 | 52.29783 | 13.19110 | 4080 ft | 196 kts | 68° |
| 2026-05-06 21:54 | 52.30274 | 13.21174 | 3775 ft | 193 kts | 68° |
| 2026-05-06 21:55 | 52.30758 | 13.23209 | 3481 ft | 190 kts | 69° |
| 2026-05-06 21:55 | 52.31235 | 13.25211 | 3213 ft | 188 kts | 69° |
| 2026-05-06 21:55 | 52.31704 | 13.27183 | 2960 ft | 185 kts | 69° |
| 2026-05-06 21:55 | 52.32162 | 13.29113 | 2715 ft | 176 kts | 69° |
| 2026-05-06 21:56 | 52.32591 | 13.30916 | 2484 ft | 165 kts | 68° |
| 2026-05-06 21:56 | 52.32993 | 13.32606 | 2242 ft | 153 kts | 68° |
| 2026-05-06 21:56 | 52.33363 | 13.34164 | 2070 ft | 140 kts | 68° |
| 2026-05-06 21:56 | 52.33697 | 13.35569 | 1878 ft | 129 kts | 67° |
| 2026-05-06 21:57 | 52.34021 | 13.36933 | 1703 ft | 128 kts | 67° |
| 2026-05-06 21:57 | 52.34345 | 13.38294 | 1520 ft | 129 kts | 67° |
| 2026-05-06 21:57 | 52.34671 | 13.39666 | 1341 ft | 129 kts | 68° |
| 2026-05-06 21:57 | 52.34994 | 13.41031 | 1169 ft | 128 kts | 68° |
| 2026-05-06 21:58 | 52.35319 | 13.42396 | 962 ft | 128 kts | 66° |
| 2026-05-06 21:58 | 52.35637 | 13.43733 | 804 ft | 128 kts | 66° |
| 2026-05-06 21:58 | 52.35960 | 13.45092 | 633 ft | 127 kts | 65° |
| 2026-05-06 21:58 | 52.36279 | 13.46436 | 481 ft | 128 kts | 70° |
| 2026-05-06 21:59 | 52.36597 | 13.47787 | 306 ft | 125 kts | 66° |
| 2026-05-06 21:59 | 52.36914 | 13.49124 | 163 ft | 123 kts | 66° |
| 2026-05-06 21:59 | 52.37177 | 13.50222 | 160 ft | 79 kts | 69° |
| 2026-05-06 21:59 | 52.37302 | 13.50791 | 158 ft | 33 kts | 83° |